createdAt,value
2019-03-30T00:09:28.805Z,35
2019-03-30T00:19:35.511Z,34
2019-03-30T00:29:38.970Z,30
2019-03-30T00:39:42.410Z,31
2019-03-30T00:49:50.452Z,32
2019-03-30T00:59:53.864Z,32
2019-03-30T01:09:57.301Z,32
2019-03-30T01:20:04.033Z,32
2019-03-30T01:30:07.489Z,32
2019-03-30T01:40:10.915Z,33
2019-03-30T01:50:18.420Z,31
2019-03-30T02:00:21.903Z,30
2019-03-30T02:10:25.321Z,30
2019-03-30T02:20:31.386Z,30
2019-03-30T02:30:34.853Z,30
2019-03-30T02:40:38.341Z,30
2019-03-30T02:50:51.032Z,30
2019-03-30T03:00:54.532Z,30
2019-03-30T03:10:58.104Z,31
2019-03-30T03:21:09.175Z,30
2019-03-30T03:31:12.709Z,29
2019-03-30T03:41:16.198Z,29
2019-03-30T03:51:27.045Z,30
2019-03-30T04:01:30.532Z,30
2019-03-30T04:11:34.017Z,31
2019-03-30T04:21:45.208Z,31
2019-03-30T04:31:48.756Z,31
2019-03-30T04:41:52.232Z,30
2019-03-30T04:51:58.462Z,28
2019-03-30T05:02:01.921Z,28
2019-03-30T05:12:05.382Z,30
2019-03-30T05:22:16.965Z,31
2019-03-30T05:32:20.432Z,29
2019-03-30T05:42:23.870Z,29
2019-03-30T05:52:27.405Z,30
2019-03-30T06:02:30.845Z,30
2019-03-30T06:12:34.305Z,31
2019-03-30T06:22:41.097Z,32
2019-03-30T06:32:44.616Z,33
2019-03-30T06:42:48.051Z,32
2019-03-30T06:52:59.178Z,33
2019-03-30T07:03:02.637Z,31
2019-03-30T07:13:06.076Z,30
2019-03-30T07:23:13.124Z,30
2019-03-30T07:33:16.563Z,30
2019-03-30T07:43:19.993Z,31
2019-03-30T07:53:27.363Z,31
2019-03-30T08:03:30.783Z,32
2019-03-30T08:13:34.248Z,32
2019-03-30T08:23:41.104Z,32
2019-03-30T08:33:44.559Z,32
2019-03-30T08:43:48.026Z,32
2019-03-30T08:53:55.377Z,32
2019-03-30T09:03:58.818Z,32
2019-03-30T09:14:02.315Z,32
2019-03-30T09:24:10.692Z,32
2019-03-30T09:34:14.147Z,33
2019-03-30T09:44:17.536Z,32
2019-03-30T09:54:24.512Z,34
2019-03-30T10:04:27.953Z,32
2019-03-30T10:14:31.401Z,32
2019-03-30T10:20:51.348Z,37
2019-03-30T10:23:07.969Z,39
2019-03-30T10:33:11.379Z,36
2019-03-30T10:43:14.839Z,35
2019-03-30T10:53:18.267Z,35
2019-03-30T11:03:21.712Z,34
2019-03-30T11:13:25.151Z,34
2019-03-30T11:23:28.733Z,35
2019-03-30T11:33:32.155Z,34
2019-03-30T11:43:35.557Z,33
2019-03-30T11:53:38.980Z,32
2019-03-30T12:03:42.433Z,33
2019-03-30T12:13:45.864Z,33
2019-03-30T12:23:49.314Z,33
2019-03-30T12:33:52.734Z,32
2019-03-30T12:43:56.165Z,32
2019-03-30T12:53:59.599Z,32
2019-03-30T13:04:03.025Z,32
2019-03-30T13:14:06.474Z,32
2019-03-30T13:24:09.930Z,32
2019-03-30T13:34:13.354Z,32
2019-03-30T13:44:16.847Z,32
2019-03-30T13:54:20.344Z,32
2019-03-30T14:04:23.805Z,32
2019-03-30T14:14:27.254Z,32
2019-03-30T14:24:30.702Z,31
2019-03-30T14:34:34.136Z,32
2019-03-30T14:44:37.697Z,32
2019-03-30T14:54:53.513Z,32
2019-03-30T15:04:56.972Z,31
2019-03-30T15:15:04.116Z,32
2019-03-30T15:25:07.551Z,32
2019-03-30T15:35:11.960Z,32
2019-03-30T15:45:15.391Z,32
2019-03-30T15:55:18.831Z,32
2019-03-30T16:05:22.270Z,32
2019-03-30T16:15:25.703Z,32
2019-03-30T16:25:29.154Z,32
2019-03-30T16:35:32.583Z,32
2019-03-30T16:45:36.053Z,33
2019-03-30T16:55:39.503Z,32
2019-03-30T17:05:43.002Z,32
2019-03-30T17:15:46.455Z,33
2019-03-30T17:25:49.868Z,34
2019-03-30T17:35:53.279Z,34
2019-03-30T17:45:56.726Z,34
2019-03-30T17:56:02.452Z,38
2019-03-30T18:06:05.902Z,35
2019-03-30T18:16:09.358Z,37
2019-03-30T18:26:12.810Z,41
2019-03-30T18:36:16.260Z,41
2019-03-30T18:46:19.685Z,38
2019-03-30T18:56:23.110Z,37
2019-03-30T19:06:26.566Z,35
2019-03-30T19:16:30.021Z,40
2019-03-30T19:26:33.565Z,41
2019-03-30T19:36:37.013Z,34
2019-03-30T19:46:40.441Z,33
2019-03-30T19:56:43.894Z,37
2019-03-30T20:06:47.358Z,36
2019-03-30T20:16:50.842Z,34
2019-03-30T20:26:54.317Z,33
2019-03-30T20:36:57.744Z,33
2019-03-30T20:47:01.166Z,33
2019-03-30T20:57:04.605Z,32
2019-03-30T21:07:08.086Z,35
2019-03-30T21:17:11.537Z,32
2019-03-30T21:27:14.972Z,32
2019-03-30T21:37:18.415Z,32
2019-03-30T21:47:21.880Z,32
2019-03-30T21:57:25.301Z,32
2019-03-30T22:07:28.716Z,32
2019-03-30T22:17:32.151Z,32
2019-03-30T22:27:35.604Z,35
2019-03-30T22:37:39.062Z,34
2019-03-30T22:47:42.492Z,33
2019-03-30T22:57:45.993Z,34
2019-03-30T23:07:49.456Z,33
2019-03-30T23:17:52.888Z,33
2019-03-30T23:27:56.343Z,34
2019-03-30T23:37:59.802Z,34
2019-03-30T23:48:03.262Z,35
2019-03-30T23:58:06.683Z,36
